Time;durP1;ratioP1;P1;durP2;ratioP2;P2;SDS_P1;SDS_P2;PMS_P1;PMS_P2;Temp;Humidity;BMP_temperature;BMP_pressure;BME280_temperature;BME280_humidity;BME280_pressure;Samples;Min_cycle;Max_cycle;Signal;HPM_P1;HPM_P2
2023/04/01 00:01:39;;;;;;;;;;;18.20;86.30;;;;;;5156956;27;20021;-74
2023/04/01 00:04:05;;;;;;;;;;;18.20;86.30;;;;;;5137862;27;20011;-74
2023/04/01 00:06:30;;;;;;;;;;;18.10;86.30;;;;;;5156811;27;19914;-75
2023/04/01 00:08:56;;;;;;;;;;;18.20;86.40;;;;;;5139197;27;19913;-77
2023/04/01 00:11:22;;;;;;;;;;;18.10;86.40;;;;;;5158285;27;19914;-77
2023/04/01 00:13:47;;;;;;;;;;;18.10;86.40;;;;;;5157000;27;19929;-74
2023/04/01 00:16:13;;;;;;;;;;;18.10;86.50;;;;;;5157298;27;19956;-74
2023/04/01 00:18:39;;;;;;;;;;;18.10;86.50;;;;;;5137542;27;20362;-74
2023/04/01 00:21:04;;;;;;;;;;;18.10;86.50;;;;;;5137385;27;19925;-74
2023/04/01 00:23:30;;;;;;;;;;;18.10;86.50;;;;;;5156283;27;20334;-75
2023/04/01 00:25:55;;;;;;;;;;;18.10;86.50;;;;;;5157146;27;20297;-78
2023/04/01 00:28:21;;;;;;;;;;;18.10;86.50;;;;;;5156772;27;19907;-78
2023/04/01 00:30:47;;;;;;;;;;;18.10;86.50;;;;;;5138325;27;19907;-75
2023/04/01 00:33:12;;;;;;;;;;;18.10;86.60;;;;;;5138654;27;20406;-74
2023/04/01 00:35:38;;;;;;;;;;;18.10;86.50;;;;;;5138382;27;19960;-74
2023/04/01 00:38:04;;;;;;;;;;;18.00;86.50;;;;;;5156697;27;19943;-74
2023/04/01 00:40:34;;;;;;;;;;;18.10;86.50;;;;;;5156743;27;19919;-77
2023/04/01 00:43:00;;;;;;;;;;;18.00;86.40;;;;;;5156444;27;19923;-75
2023/04/01 00:45:27;;;;;;;;;;;18.00;86.50;;;;;;5149102;27;19911;-74
2023/04/01 00:47:53;;;;;;;;;;;18.00;86.50;;;;;;5136934;28;19930;-74
2023/04/01 00:50:19;;;;;;;;;;;18.00;87.00;;;;;;5118366;28;20350;-74
2023/04/01 00:52:46;;;;;;;;;;;18.00;86.60;;;;;;5136392;28;20436;-73
2023/04/01 00:55:12;;;;;;;;;;;18.00;86.60;;;;;;5135709;28;19998;-74
2023/04/01 00:57:39;;;;;;;;;;;18.00;86.60;;;;;;5135466;28;19907;-74
2023/04/01 01:00:07;;;;;;;;;;;18.00;86.70;;;;;;5134771;28;19967;-73
2023/04/01 01:02:32;;;;;;;;;;;18.00;86.70;;;;;;5135106;28;20281;-71
2023/04/01 01:04:58;;;;;;;;;;;18.00;86.70;;;;;;5135378;28;19912;-73
2023/04/01 01:07:42;;;;;;;;;;;18.00;86.70;;;;;;5135327;28;19913;-72
2023/04/01 01:10:11;;;;;;;;;;;18.00;87.30;;;;;;5135880;28;19947;-72
2023/04/01 01:13:02;;;;;;;;;;;17.90;86.70;;;;;;5134567;28;20004;-72
2023/04/01 01:15:30;;;;;;;;;;;17.90;86.80;;;;;;5134961;27;20004;-74
2023/04/01 01:17:55;;;;;;;;;;;17.90;86.80;;;;;;5139103;27;19912;-74
2023/04/01 01:20:24;;;;;;;;;;;17.90;86.80;;;;;;5138647;27;19922;-74
2023/04/01 01:22:53;;;;;;;;;;;17.90;86.80;;;;;;5140731;27;19907;-73
2023/04/01 01:25:21;;;;;;;;;;;17.90;86.80;;;;;;5140772;27;19907;-74
2023/04/01 01:27:54;;;;;;;;;;;17.90;86.80;;;;;;5140359;27;20335;-73
2023/04/01 01:30:38;;;;;;;;;;;17.90;86.90;;;;;;5139712;27;19907;-73
2023/04/01 01:33:36;;;;;;;;;;;17.90;87.00;;;;;;5139434;27;19908;-72
2023/04/01 01:36:05;;;;;;;;;;;17.90;87.00;;;;;;5103487;27;19907;-72
2023/04/01 01:38:32;;;;;;;;;;;17.90;86.90;;;;;;5138348;27;19908;-73
2023/04/01 01:40:58;;;;;;;;;;;17.90;87.00;;;;;;5139759;27;19950;-73
2023/04/01 01:43:25;;;;;;;;;;;17.80;87.00;;;;;;5139880;27;20378;-73
2023/04/01 01:45:58;;;;;;;;;;;17.80;87.00;;;;;;5150135;27;19983;-73
2023/04/01 01:48:24;;;;;;;;;;;17.80;87.10;;;;;;5158731;27;19993;-74
2023/04/01 01:50:50;;;;;;;;;;;17.80;87.00;;;;;;5160318;27;19907;-75
2023/04/01 01:53:16;;;;;;;;;;;17.80;87.10;;;;;;5159190;27;19911;-75
2023/04/01 01:55:43;;;;;;;;;;;17.80;87.20;;;;;;5160695;27;20273;-74
2023/04/01 01:58:15;;;;;;;;;;;17.80;87.20;;;;;;5160419;27;19971;-75
2023/04/01 02:00:43;;;;;;;;;;;17.70;87.10;;;;;;5160216;27;19918;-74
2023/04/01 02:03:09;;;;;;;;;;;17.80;87.20;;;;;;5160699;27;19935;-75
2023/04/01 02:05:35;;;;;;;;;;;17.70;87.20;;;;;;5159074;27;20362;-73
2023/04/01 02:08:10;;;;;;;;;;;17.70;87.20;;;;;;5158835;27;20265;-74
2023/04/01 02:10:38;;;;;;;;;;;17.70;87.10;;;;;;5141378;27;19914;-72
2023/04/01 02:13:08;;;;;;;;;;;17.70;87.20;;;;;;5158472;27;19907;-74
2023/04/01 02:15:37;;;;;;;;;;;17.70;87.30;;;;;;5159741;27;19907;-73
2023/04/01 02:18:03;;;;;;;;;;;17.70;87.20;;;;;;5158431;27;19972;-73
2023/04/01 02:20:29;;;;;;;;;;;17.70;87.20;;;;;;5157861;27;19911;-73
2023/04/01 02:22:56;;;;;;;;;;;17.70;87.20;;;;;;5139630;27;19911;-74
2023/04/01 02:25:23;;;;;;;;;;;17.70;87.30;;;;;;5139267;27;19957;-73
2023/04/01 02:27:49;;;;;;;;;;;17.70;87.30;;;;;;5139452;27;19907;-73
2023/04/01 02:30:15;;;;;;;;;;;17.70;87.20;;;;;;5140282;27;19964;-73
2023/04/01 02:32:41;;;;;;;;;;;17.70;87.10;;;;;;5159988;27;19950;-74
2023/04/01 02:35:11;;;;;;;;;;;17.60;87.10;;;;;;5159747;27;19908;-73
2023/04/01 02:37:37;;;;;;;;;;;17.70;87.30;;;;;;5159496;27;19914;-72
2023/04/01 02:40:06;;;;;;;;;;;17.60;87.20;;;;;;5157834;27;19911;-73
2023/04/01 02:42:31;;;;;;;;;;;17.60;87.20;;;;;;5158102;27;20333;-73
2023/04/01 02:44:57;;;;;;;;;;;17.60;87.20;;;;;;5153937;27;19907;-73
2023/04/01 02:47:22;;;;;;;;;;;17.60;87.10;;;;;;5136705;27;19947;-73
2023/04/01 02:49:48;;;;;;;;;;;17.60;87.20;;;;;;5136625;27;19953;-73
2023/04/01 02:52:13;;;;;;;;;;;17.60;87.30;;;;;;5136890;27;19994;-73
2023/04/01 02:54:39;;;;;;;;;;;17.60;87.40;;;;;;5136621;27;19908;-73
2023/04/01 02:57:05;;;;;;;;;;;17.60;87.40;;;;;;5136517;27;20006;-73
2023/04/01 02:59:30;;;;;;;;;;;17.60;87.40;;;;;;5136817;27;19907;-73
2023/04/01 03:01:55;;;;;;;;;;;17.50;87.20;;;;;;5136587;27;19961;-73
2023/04/01 03:04:21;;;;;;;;;;;17.60;87.50;;;;;;5136613;27;19914;-73
2023/04/01 03:06:46;;;;;;;;;;;17.50;87.40;;;;;;5136934;27;20271;-73
2023/04/01 03:09:12;;;;;;;;;;;17.50;87.50;;;;;;5136564;27;20001;-73
2023/04/01 03:11:37;;;;;;;;;;;17.50;87.50;;;;;;5118064;27;19907;-73
2023/04/01 03:14:03;;;;;;;;;;;17.50;87.50;;;;;;5136000;27;19998;-73
2023/04/01 03:16:28;;;;;;;;;;;17.60;87.60;;;;;;5117922;27;19907;-73
2023/04/01 03:18:56;;;;;;;;;;;17.50;87.70;;;;;;5136052;27;20471;-73
2023/04/01 03:21:22;;;;;;;;;;;17.50;87.60;;;;;;5136237;27;19916;-73
2023/04/01 03:23:48;;;;;;;;;;;17.50;87.70;;;;;;5117832;27;19915;-73
2023/04/01 03:26:14;;;;;;;;;;;17.50;87.80;;;;;;5135998;27;19908;-73
2023/04/01 03:28:39;;;;;;;;;;;17.50;87.80;;;;;;5135966;27;20016;-73
2023/04/01 03:31:05;;;;;;;;;;;17.50;87.80;;;;;;5136371;27;19911;-73
2023/04/01 03:33:31;;;;;;;;;;;17.40;87.60;;;;;;5135575;27;19908;-73
2023/04/01 03:35:56;;;;;;;;;;;17.40;87.80;;;;;;5135645;27;20278;-74
2023/04/01 03:38:22;;;;;;;;;;;17.40;87.40;;;;;;5135457;27;19961;-74
2023/04/01 03:40:47;;;;;;;;;;;17.40;87.80;;;;;;5135734;27;19922;-73
2023/04/01 03:43:12;;;;;;;;;;;17.40;87.70;;;;;;5135954;27;19908;-74
2023/04/01 03:45:48;;;;;;;;;;;17.40;87.80;;;;;;5145090;27;19914;-72
2023/04/01 03:48:14;;;;;;;;;;;17.40;87.90;;;;;;5156459;27;19907;-73
2023/04/01 03:50:40;;;;;;;;;;;17.40;87.90;;;;;;5156167;27;20285;-72
2023/04/01 03:53:05;;;;;;;;;;;17.40;87.90;;;;;;5156385;27;20341;-73
2023/04/01 03:55:31;;;;;;;;;;;17.50;87.90;;;;;;5156318;27;19914;-73
2023/04/01 03:57:56;;;;;;;;;;;17.40;88.00;;;;;;5156298;27;19930;-73
2023/04/01 04:00:21;;;;;;;;;;;17.40;88.00;;;;;;5137891;27;19917;-74
2023/04/01 04:02:47;;;;;;;;;;;17.40;88.00;;;;;;5156554;27;19915;-73
2023/04/01 04:05:13;;;;;;;;;;;17.30;87.90;;;;;;5137644;27;19998;-73
2023/04/01 04:07:38;;;;;;;;;;;17.40;88.10;;;;;;5156151;27;19907;-73
2023/04/01 04:10:04;;;;;;;;;;;17.40;88.10;;;;;;5155882;27;20353;-73
2023/04/01 04:12:29;;;;;;;;;;;17.30;88.00;;;;;;5156056;27;20001;-73
2023/04/01 04:14:55;;;;;;;;;;;17.30;88.10;;;;;;5155938;27;19933;-73
2023/04/01 04:17:20;;;;;;;;;;;17.30;88.10;;;;;;5156057;27;20005;-74
2023/04/01 04:19:46;;;;;;;;;;;17.30;88.10;;;;;;5155631;27;19907;-73
2023/04/01 04:22:11;;;;;;;;;;;17.30;88.00;;;;;;5137399;27;19911;-73
2023/04/01 04:24:37;;;;;;;;;;;17.30;88.20;;;;;;5155741;27;20362;-72
2023/04/01 04:27:03;;;;;;;;;;;17.30;88.10;;;;;;5137334;27;19961;-73
2023/04/01 04:29:29;;;;;;;;;;;17.30;88.00;;;;;;5155600;27;19930;-74
2023/04/01 04:31:54;;;;;;;;;;;17.30;88.20;;;;;;5155814;27;19907;-74
2023/04/01 04:34:21;;;;;;;;;;;17.30;87.70;;;;;;5155837;27;20020;-73
2023/04/01 04:36:47;;;;;;;;;;;17.20;87.90;;;;;;5156134;27;19907;-74
2023/04/01 04:39:12;;;;;;;;;;;17.20;88.20;;;;;;5155890;27;20292;-73
2023/04/01 04:41:37;;;;;;;;;;;17.20;88.00;;;;;;5136906;27;19923;-73
2023/04/01 04:44:03;;;;;;;;;;;17.30;88.50;;;;;;5155509;27;19998;-73
2023/04/01 04:46:29;;;;;;;;;;;17.20;88.20;;;;;;5139077;27;20403;-73
2023/04/01 04:48:54;;;;;;;;;;;17.20;88.20;;;;;;5134711;28;19976;-74
2023/04/01 04:51:20;;;;;;;;;;;17.20;88.30;;;;;;5136913;27;20261;-74
2023/04/01 04:53:46;;;;;;;;;;;17.20;88.30;;;;;;5138879;27;19916;-73
2023/04/01 04:56:11;;;;;;;;;;;17.20;88.40;;;;;;5138949;27;19994;-73
2023/04/01 04:58:37;;;;;;;;;;;17.20;88.20;;;;;;5138736;27;20399;-74
2023/04/01 05:01:07;;;;;;;;;;;17.20;88.20;;;;;;5138694;27;20277;-74
2023/04/01 05:03:32;;;;;;;;;;;17.20;88.50;;;;;;5139046;27;19919;-74
2023/04/01 05:05:58;;;;;;;;;;;17.10;88.30;;;;;;5138645;27;19907;-74
2023/04/01 05:08:23;;;;;;;;;;;17.20;88.40;;;;;;5138938;27;20009;-73
2023/04/01 05:10:49;;;;;;;;;;;17.10;88.60;;;;;;5139113;27;20239;-74
2023/04/01 05:13:14;;;;;;;;;;;17.20;88.40;;;;;;5138785;27;19983;-72
2023/04/01 05:15:40;;;;;;;;;;;17.10;88.40;;;;;;5138526;27;20281;-72
2023/04/01 05:18:05;;;;;;;;;;;17.10;88.40;;;;;;5138444;27;20362;-74
2023/04/01 05:20:31;;;;;;;;;;;17.10;88.50;;;;;;5138314;27;19918;-73
2023/04/01 05:22:56;;;;;;;;;;;17.10;88.60;;;;;;5138579;27;19918;-73
2023/04/01 05:25:22;;;;;;;;;;;17.10;88.50;;;;;;5138284;27;20366;-73
2023/04/01 05:27:47;;;;;;;;;;;17.10;88.60;;;;;;5138432;27;19914;-73
2023/04/01 05:30:13;;;;;;;;;;;17.00;88.50;;;;;;5138145;27;19961;-74
2023/04/01 05:32:38;;;;;;;;;;;17.10;88.70;;;;;;5138356;27;20306;-72
2023/04/01 05:35:04;;;;;;;;;;;17.00;88.80;;;;;;5138209;27;19908;-74
2023/04/01 05:37:30;;;;;;;;;;;17.10;88.80;;;;;;5138028;27;20358;-73
2023/04/01 05:39:55;;;;;;;;;;;17.00;88.70;;;;;;5119738;27;20397;-73
2023/04/01 05:42:20;;;;;;;;;;;17.00;88.70;;;;;;5138124;27;19930;-73
2023/04/01 05:44:46;;;;;;;;;;;17.00;88.70;;;;;;5140143;27;19914;-73
2023/04/01 05:47:11;;;;;;;;;;;17.00;88.80;;;;;;5158563;27;20373;-73
2023/04/01 05:49:37;;;;;;;;;;;17.00;88.90;;;;;;5158748;27;20275;-73
2023/04/01 05:52:02;;;;;;;;;;;17.00;88.90;;;;;;5158226;27;19911;-73
2023/04/01 05:54:28;;;;;;;;;;;17.00;88.90;;;;;;5158473;27;19914;-73
2023/04/01 05:56:54;;;;;;;;;;;17.00;88.90;;;;;;5158241;27;20353;-73
2023/04/01 05:59:19;;;;;;;;;;;17.00;88.90;;;;;;5158651;27;19907;-73
2023/04/01 06:01:45;;;;;;;;;;;16.90;88.80;;;;;;5157640;27;19919;-73
2023/04/01 06:04:15;;;;;;;;;;;17.00;88.90;;;;;;5158554;27;19907;-72
2023/04/01 06:06:40;;;;;;;;;;;17.00;88.90;;;;;;5158303;27;19942;-72
2023/04/01 06:09:14;;;;;;;;;;;16.90;88.90;;;;;;5158039;27;19907;-73
2023/04/01 06:11:40;;;;;;;;;;;16.90;89.00;;;;;;5158241;27;19921;-71
2023/04/01 06:14:24;;;;;;;;;;;16.90;89.10;;;;;;5139445;27;20009;-73
2023/04/01 06:16:56;;;;;;;;;;;16.90;89.20;;;;;;5157908;27;19907;-73
2023/04/01 06:19:21;;;;;;;;;;;16.90;89.10;;;;;;5157790;27;20379;-73
2023/04/01 06:22:05;;;;;;;;;;;16.90;89.10;;;;;;5157714;27;19958;-72
2023/04/01 06:24:36;;;;;;;;;;;16.90;89.10;;;;;;5158123;27;20056;-73
2023/04/01 06:27:14;;;;;;;;;;;16.90;89.20;;;;;;5135449;27;19908;-73
2023/04/01 06:29:44;;;;;;;;;;;16.80;89.20;;;;;;5135896;27;19918;-70
2023/04/01 06:32:30;;;;;;;;;;;16.90;89.30;;;;;;5116764;28;19908;-72
2023/04/01 06:35:08;;;;;;;;;;;16.90;89.30;;;;;;5116970;27;19917;-73
2023/04/01 06:37:42;;;;;;;;;;;16.80;89.20;;;;;;5136666;27;19919;-73
2023/04/01 06:40:26;;;;;;;;;;;16.90;89.30;;;;;;5137013;27;20010;-73
2023/04/01 06:43:05;;;;;;;;;;;16.90;89.30;;;;;;5137347;27;19919;-72
2023/04/01 06:45:37;;;;;;;;;;;16.80;89.30;;;;;;5122805;27;19952;-72
2023/04/01 06:48:15;;;;;;;;;;;16.80;89.30;;;;;;5118382;27;20273;-73
2023/04/01 06:50:48;;;;;;;;;;;16.80;89.40;;;;;;5140696;27;19915;-73
2023/04/01 06:53:32;;;;;;;;;;;16.80;89.40;;;;;;5136909;27;19907;-73
2023/04/01 06:56:01;;;;;;;;;;;16.80;89.50;;;;;;5136023;27;20376;-72
2023/04/01 06:58:29;;;;;;;;;;;16.80;89.60;;;;;;5118245;27;20324;-73
2023/04/01 07:00:58;;;;;;;;;;;16.80;89.70;;;;;;5136178;27;19915;-72
2023/04/01 07:03:44;;;;;;;;;;;16.80;89.70;;;;;;5118095;27;19907;-72
2023/04/01 07:06:14;;;;;;;;;;;16.80;89.80;;;;;;5136637;27;19907;-72
2023/04/01 07:08:41;;;;;;;;;;;16.80;89.80;;;;;;5136125;27;20338;-72
2023/04/01 07:11:10;;;;;;;;;;;16.80;89.80;;;;;;5136282;27;19914;-73
2023/04/01 07:13:52;;;;;;;;;;;16.70;90.10;;;;;;5134346;27;19927;-72
2023/04/01 07:16:20;;;;;;;;;;;16.80;89.90;;;;;;5135956;27;19954;-72
2023/04/01 07:18:49;;;;;;;;;;;16.80;90.00;;;;;;5136263;27;19919;-72
2023/04/01 07:21:29;;;;;;;;;;;16.80;90.00;;;;;;5117264;27;19922;-72
2023/04/01 07:23:56;;;;;;;;;;;16.80;89.90;;;;;;5135530;27;19964;-71
2023/04/01 07:26:23;;;;;;;;;;;16.80;90.00;;;;;;5136037;27;19912;-72
2023/04/01 07:28:50;;;;;;;;;;;16.70;89.90;;;;;;5135414;27;19909;-72
2023/04/01 07:31:20;;;;;;;;;;;16.70;90.00;;;;;;5134362;27;19915;-72
2023/04/01 07:33:57;;;;;;;;;;;16.70;90.00;;;;;;5132578;27;19915;-73
2023/04/01 07:36:26;;;;;;;;;;;16.70;90.00;;;;;;5134477;27;19918;-70
2023/04/01 07:38:59;;;;;;;;;;;16.70;90.00;;;;;;5117045;27;19991;-70
2023/04/01 07:41:44;;;;;;;;;;;16.70;90.00;;;;;;5116469;27;19967;-71
2023/04/01 07:44:24;;;;;;;;;;;16.80;90.10;;;;;;5135098;27;19912;-71
2023/04/01 07:46:49;;;;;;;;;;;16.80;90.10;;;;;;5139965;27;19911;-72
2023/04/01 07:49:18;;;;;;;;;;;16.80;90.10;;;;;;5134386;27;19922;-73
2023/04/01 07:51:55;;;;;;;;;;;16.80;90.10;;;;;;5135406;27;20002;-72
2023/04/01 07:54:40;;;;;;;;;;;16.80;90.10;;;;;;5115740;27;19935;-72
2023/04/01 07:57:25;;;;;;;;;;;16.80;90.00;;;;;;5117567;27;20386;-71
2023/04/01 08:00:17;;;;;;;;;;;16.80;90.10;;;;;;5107067;28;19912;-71
2023/04/01 08:02:51;;;;;;;;;;;16.80;90.00;;;;;;5125669;27;19915;-70
2023/04/01 08:05:43;;;;;;;;;;;16.90;90.00;;;;;;5132782;27;20274;-71
2023/04/01 08:08:27;;;;;;;;;;;17.00;89.90;;;;;;5093147;27;19908;-71
2023/04/01 08:11:08;;;;;;;;;;;17.10;89.50;;;;;;5133195;27;19955;-71
2023/04/01 08:13:38;;;;;;;;;;;17.10;89.20;;;;;;5133554;27;19912;-71
2023/04/01 08:16:21;;;;;;;;;;;17.20;88.90;;;;;;5132988;27;19915;-71
2023/04/01 08:18:53;;;;;;;;;;;17.30;88.70;;;;;;5133792;27;19918;-71
2023/04/01 08:21:28;;;;;;;;;;;17.40;88.30;;;;;;5133586;27;19922;-71
2023/04/01 08:23:57;;;;;;;;;;;17.40;88.20;;;;;;5117289;27;20315;-71
2023/04/01 08:26:23;;;;;;;;;;;17.50;88.00;;;;;;5134153;27;19911;-70
2023/04/01 08:28:48;;;;;;;;;;;17.50;87.90;;;;;;5135340;27;19960;-70
2023/04/01 08:31:18;;;;;;;;;;;17.60;87.80;;;;;;5132589;27;19926;-69
2023/04/01 08:33:46;;;;;;;;;;;17.60;87.70;;;;;;5133752;27;19918;-69
2023/04/01 08:36:16;;;;;;;;;;;17.60;87.60;;;;;;5115521;28;19918;-70
2023/04/01 08:38:51;;;;;;;;;;;17.70;87.50;;;;;;5133279;27;19918;-69
2023/04/01 08:41:22;;;;;;;;;;;17.70;87.50;;;;;;5134732;28;19926;-70
2023/04/01 08:44:00;;;;;;;;;;;17.70;87.40;;;;;;5117442;28;19918;-71
2023/04/01 08:46:35;;;;;;;;;;;17.80;87.30;;;;;;5150950;27;19911;-69
2023/04/01 08:49:16;;;;;;;;;;;17.80;87.10;;;;;;5117685;28;19987;-70
2023/04/01 08:52:04;;;;;;;;;;;17.80;87.00;;;;;;5116015;28;19907;-73
2023/04/01 08:54:30;;;;;;;;;;;17.80;87.00;;;;;;5123438;28;20372;-70
2023/04/01 08:56:56;;;;;;;;;;;17.80;86.20;;;;;;5134632;28;19912;-70
2023/04/01 08:59:40;;;;;;;;;;;17.90;86.40;;;;;;5134269;28;20358;-70
2023/04/01 09:02:08;;;;;;;;;;;17.90;86.60;;;;;;5115916;28;20022;-68
2023/04/01 09:04:53;;;;;;;;;;;17.90;86.30;;;;;;5115998;28;20369;-68
2023/04/01 09:07:18;;;;;;;;;;;17.90;86.30;;;;;;5115752;28;19915;-68
2023/04/01 09:09:46;;;;;;;;;;;17.90;86.10;;;;;;5134571;28;19907;-68
2023/04/01 09:12:24;;;;;;;;;;;17.90;86.00;;;;;;5116035;28;19907;-69
2023/04/01 09:15:05;;;;;;;;;;;18.00;86.50;;;;;;5140464;27;19925;-63
2023/04/01 09:17:33;;;;;;;;;;;18.00;86.50;;;;;;5125791;27;20431;-68
2023/04/01 09:20:16;;;;;;;;;;;18.00;86.50;;;;;;5134464;28;20309;-68
2023/04/01 09:22:51;;;;;;;;;;;18.00;86.50;;;;;;5134799;28;19918;-68
2023/04/01 09:25:30;;;;;;;;;;;18.00;86.50;;;;;;5132555;27;19911;-74
2023/04/01 09:28:01;;;;;;;;;;;18.00;86.50;;;;;;5155436;27;19911;-76
2023/04/01 09:30:33;;;;;;;;;;;18.00;86.50;;;;;;5154890;27;19911;-76
2023/04/01 09:33:07;;;;;;;;;;;18.10;86.80;;;;;;5154958;27;19914;-72
2023/04/01 09:35:52;;;;;;;;;;;18.10;87.20;;;;;;5116466;28;19922;-72
2023/04/01 09:38:17;;;;;;;;;;;18.10;87.20;;;;;;5135784;27;19911;-73
2023/04/01 09:41:12;;;;;;;;;;;18.10;87.30;;;;;;5133900;27;20328;-76
2023/04/01 09:43:56;;;;;;;;;;;18.10;87.40;;;;;;5118866;27;19911;-80
2023/04/01 09:46:27;;;;;;;;;;;18.10;87.50;;;;;;5153558;27;19964;-77
2023/04/01 09:49:19;;;;;;;;;;;18.10;87.40;;;;;;5146127;27;19919;-77
2023/04/01 09:51:45;;;;;;;;;;;18.20;87.30;;;;;;5138344;27;20002;-79
2023/04/01 09:54:20;;;;;;;;;;;18.10;87.20;;;;;;5119057;27;19990;-79
2023/04/01 09:57:01;;;;;;;;;;;18.10;87.20;;;;;;5137702;27;19917;-76
2023/04/01 09:59:36;;;;;;;;;;;18.10;87.10;;;;;;5137136;27;19912;-74
2023/04/01 10:02:10;;;;;;;;;;;18.20;87.20;;;;;;5136410;27;19911;-75
2023/04/01 10:04:50;;;;;;;;;;;18.20;87.20;;;;;;5134921;27;19925;-71
2023/04/01 10:07:18;;;;;;;;;;;18.20;87.20;;;;;;5135908;27;19966;-80
2023/04/01 10:09:44;;;;;;;;;;;18.10;84.70;;;;;;5136450;27;19918;-76
2023/04/01 10:12:31;;;;;;;;;;;18.10;86.20;;;;;;5118432;27;20314;-78
2023/04/01 10:15:15;;;;;;;;;;;18.10;86.70;;;;;;5134597;27;20358;-67
2023/04/01 10:17:43;;;;;;;;;;;18.20;87.00;;;;;;5106039;27;20340;-73
2023/04/01 10:20:09;;;;;;;;;;;18.20;87.00;;;;;;5134782;27;19919;-78
2023/04/01 10:22:40;;;;;;;;;;;18.20;86.80;;;;;;5137278;27;19911;-78
2023/04/01 10:25:24;;;;;;;;;;;18.20;86.90;;;;;;5136974;27;19976;-78
2023/04/01 10:28:04;;;;;;;;;;;18.20;86.80;;;;;;5118331;27;19908;-78
2023/04/01 10:30:56;;;;;;;;;;;18.20;86.80;;;;;;5137037;27;19907;-72
2023/04/01 10:33:24;;;;;;;;;;;18.20;86.70;;;;;;5108526;27;19947;-80
2023/04/01 10:36:05;;;;;;;;;;;18.20;86.60;;;;;;5115961;27;21167;-75
2023/04/01 10:38:46;;;;;;;;;;;18.20;86.60;;;;;;5135577;27;19972;-79
2023/04/01 10:41:17;;;;;;;;;;;18.20;86.60;;;;;;5135549;27;19919;-77
2023/04/01 10:43:55;;;;;;;;;;;18.20;86.60;;;;;;5135658;27;19912;-79
2023/04/01 10:46:45;;;;;;;;;;;18.20;86.50;;;;;;5142247;27;19926;-73
2023/04/01 10:49:29;;;;;;;;;;;18.20;86.50;;;;;;5135588;27;20391;-78
2023/04/01 10:52:24;;;;;;;;;;;18.20;86.50;;;;;;5134745;27;19911;-71
2023/04/01 10:55:01;;;;;;;;;;;18.20;86.50;;;;;;5121296;27;19916;-77
2023/04/01 10:57:30;;;;;;;;;;;18.20;86.50;;;;;;5117949;27;20334;-71
2023/04/01 11:00:20;;;;;;;;;;;18.20;86.50;;;;;;5116398;27;19915;-69
2023/04/01 11:03:04;;;;;;;;;;;18.20;86.50;;;;;;5135325;27;20021;-69
2023/04/01 11:05:45;;;;;;;;;;;18.30;86.60;;;;;;5116003;27;19911;-75
2023/04/01 11:08:13;;;;;;;;;;;18.30;86.70;;;;;;5135297;27;19918;-73
2023/04/01 11:10:57;;;;;;;;;;;18.20;86.60;;;;;;5133686;27;19916;-75
2023/04/01 11:13:29;;;;;;;;;;;18.20;86.60;;;;;;5118284;27;19965;-76
2023/04/01 11:16:24;;;;;;;;;;;18.30;86.60;;;;;;5136249;27;19990;-73
2023/04/01 11:19:10;;;;;;;;;;;18.30;86.70;;;;;;5057080;27;19966;-73
2023/04/01 11:21:59;;;;;;;;;;;18.30;87.20;;;;;;5117776;27;19916;-51
2023/04/01 11:24:28;;;;;;;;;;;18.30;86.70;;;;;;5134137;27;19915;-54
2023/04/01 11:27:03;;;;;;;;;;;18.30;86.70;;;;;;5134373;27;19918;-50
2023/04/01 11:29:48;;;;;;;;;;;18.30;86.70;;;;;;5117229;27;20000;-57
2023/04/01 11:32:16;;;;;;;;;;;18.30;86.70;;;;;;5135536;27;19954;-55
2023/04/01 11:34:57;;;;;;;;;;;18.30;86.70;;;;;;5134968;27;19911;-51
2023/04/01 11:37:31;;;;;;;;;;;18.30;86.70;;;;;;5116560;27;19964;-58
2023/04/01 11:40:15;;;;;;;;;;;18.30;86.80;;;;;;5135632;27;19915;-58
2023/04/01 11:42:48;;;;;;;;;;;18.30;86.80;;;;;;5134869;27;19926;-54
2023/04/01 11:45:17;;;;;;;;;;;18.30;86.80;;;;;;5139178;27;20425;-54
2023/04/01 11:47:46;;;;;;;;;;;18.30;86.80;;;;;;5155081;27;19908;-55
2023/04/01 11:50:24;;;;;;;;;;;18.30;86.70;;;;;;5133586;27;20366;-55
2023/04/01 11:53:12;;;;;;;;;;;18.30;86.70;;;;;;5134435;27;19987;-53
2023/04/01 11:55:38;;;;;;;;;;;18.30;86.80;;;;;;5085993;27;19911;-53
2023/04/01 11:58:16;;;;;;;;;;;18.30;86.80;;;;;;5134416;27;19911;-58
2023/04/01 12:00:48;;;;;;;;;;;18.30;86.70;;;;;;5132969;27;19964;-54
2023/04/01 12:03:32;;;;;;;;;;;18.30;86.80;;;;;;5135080;27;20273;-54
2023/04/01 12:05:58;;;;;;;;;;;18.30;86.70;;;;;;5132507;27;20346;-62
2023/04/01 12:08:32;;;;;;;;;;;18.30;86.90;;;;;;5133971;27;19911;-57
2023/04/01 12:11:04;;;;;;;;;;;18.30;86.80;;;;;;5116829;28;20372;-56
2023/04/01 12:13:35;;;;;;;;;;;18.30;86.80;;;;;;5134353;27;19918;-53
2023/04/01 12:16:19;;;;;;;;;;;18.30;86.70;;;;;;5131532;27;19918;-59
2023/04/01 12:19:02;;;;;;;;;;;18.30;86.70;;;;;;5134405;27;19907;-57
2023/04/01 12:21:35;;;;;;;;;;;18.30;86.70;;;;;;5134028;27;19919;-58
2023/04/01 12:24:19;;;;;;;;;;;18.30;86.60;;;;;;5133604;27;20591;-55
2023/04/01 12:27:03;;;;;;;;;;;18.30;86.60;;;;;;5115744;28;19920;-59
2023/04/01 12:29:39;;;;;;;;;;;18.30;86.60;;;;;;5133435;27;20281;-57
2023/04/01 12:32:05;;;;;;;;;;;18.30;86.60;;;;;;5132297;27;19912;-57
2023/04/01 12:34:40;;;;;;;;;;;18.30;86.70;;;;;;5132131;27;19911;-58
2023/04/01 12:37:21;;;;;;;;;;;18.30;86.70;;;;;;5140272;27;19923;-58
2023/04/01 12:39:47;;;;;;;;;;;18.30;86.70;;;;;;5114006;28;19912;-54
2023/04/01 12:42:12;;;;;;;;;;;18.30;86.70;;;;;;5113703;28;19968;-59
2023/04/01 12:44:37;;;;;;;;;;;18.30;86.50;;;;;;5117346;27;19916;-56
2023/04/01 12:47:06;;;;;;;;;;;18.30;86.50;;;;;;5134409;28;20007;-51
2023/04/01 12:49:31;;;;;;;;;;;18.30;86.70;;;;;;5134200;27;19943;-56
2023/04/01 12:52:03;;;;;;;;;;;18.30;86.50;;;;;;5115862;28;19955;-57
2023/04/01 12:54:52;;;;;;;;;;;18.40;86.90;;;;;;5134648;28;19908;-56
2023/04/01 12:57:46;;;;;;;;;;;18.30;86.70;;;;;;5104957;28;19907;-57
2023/04/01 13:00:31;;;;;;;;;;;18.30;86.50;;;;;;5078462;28;19919;-53
2023/04/01 13:03:11;;;;;;;;;;;18.30;86.40;;;;;;5134295;28;19915;-52
2023/04/01 13:05:55;;;;;;;;;;;18.30;86.40;;;;;;5115851;28;20304;-55
2023/04/01 13:08:36;;;;;;;;;;;18.40;86.40;;;;;;5131698;27;19956;-55
2023/04/01 13:11:08;;;;;;;;;;;18.40;86.40;;;;;;5133284;27;19938;-52
2023/04/01 13:13:39;;;;;;;;;;;18.40;86.50;;;;;;5136989;27;19972;-53
2023/04/01 13:16:14;;;;;;;;;;;18.40;86.40;;;;;;5135749;27;19911;-51
2023/04/01 13:18:59;;;;;;;;;;;18.30;86.50;;;;;;5137048;27;19911;-50
2023/04/01 13:21:36;;;;;;;;;;;18.40;86.80;;;;;;5135359;27;19915;-47
2023/04/01 13:24:07;;;;;;;;;;;18.30;86.20;;;;;;5138472;27;19911;-50
2023/04/01 13:26:46;;;;;;;;;;;18.30;86.00;;;;;;5136230;27;19915;-50
2023/04/01 13:29:17;;;;;;;;;;;18.30;86.20;;;;;;5121014;27;20345;-48
2023/04/01 13:31:52;;;;;;;;;;;18.30;86.10;;;;;;5135048;27;19965;-47
2023/04/01 13:34:36;;;;;;;;;;;18.30;86.00;;;;;;5137794;27;19908;-48
2023/04/01 13:37:11;;;;;;;;;;;18.30;85.80;;;;;;5135724;27;19918;-50
2023/04/01 13:39:44;;;;;;;;;;;18.30;85.80;;;;;;5136739;27;19912;-50
2023/04/01 13:42:12;;;;;;;;;;;18.30;85.90;;;;;;5119397;27;20267;-49
2023/04/01 13:44:38;;;;;;;;;;;18.30;85.80;;;;;;5138492;27;19942;-52
2023/04/01 13:47:03;;;;;;;;;;;18.30;85.60;;;;;;5140185;27;19907;-50
2023/04/01 13:49:48;;;;;;;;;;;18.30;85.70;;;;;;5140018;27;19929;-52
2023/04/01 13:52:25;;;;;;;;;;;18.30;85.60;;;;;;5158713;27;19907;-49
2023/04/01 13:54:59;;;;;;;;;;;18.30;85.70;;;;;;5157684;27;19911;-51
2023/04/01 13:57:52;;;;;;;;;;;18.30;85.50;;;;;;5128663;27;19911;-47
2023/04/01 14:00:30;;;;;;;;;;;18.30;85.60;;;;;;5098838;28;20312;-53
2023/04/01 14:02:55;;;;;;;;;;;18.30;85.80;;;;;;5133147;27;19919;-50
2023/04/01 14:05:40;;;;;;;;;;;18.30;85.80;;;;;;5135367;27;19923;-49
2023/04/01 14:08:13;;;;;;;;;;;18.30;85.90;;;;;;5125992;27;19908;-52
2023/04/01 14:10:41;;;;;;;;;;;18.30;85.90;;;;;;5134707;27;19919;-53
2023/04/01 14:13:07;;;;;;;;;;;18.30;85.90;;;;;;5120505;27;19912;-53
2023/04/01 14:15:39;;;;;;;;;;;18.30;85.90;;;;;;5137521;27;19908;-52
2023/04/01 14:18:08;;;;;;;;;;;18.30;85.80;;;;;;5137445;27;19947;-57
2023/04/01 14:20:40;;;;;;;;;;;18.30;85.70;;;;;;5137440;27;19911;-55
2023/04/01 14:23:31;;;;;;;;;;;18.20;85.60;;;;;;5137348;27;19915;-55
2023/04/01 14:25:56;;;;;;;;;;;18.20;85.80;;;;;;5136669;27;20608;-55
2023/04/01 14:28:34;;;;;;;;;;;18.30;85.70;;;;;;5131801;27;19965;-53
2023/04/01 14:31:09;;;;;;;;;;;18.30;85.70;;;;;;5135315;27;19915;-52
2023/04/01 14:33:37;;;;;;;;;;;18.30;85.80;;;;;;5141678;27;19907;-57
2023/04/01 14:36:15;;;;;;;;;;;18.30;85.80;;;;;;5138275;27;19912;-52
2023/04/01 14:38:40;;;;;;;;;;;18.30;85.90;;;;;;5136893;27;19907;-55
2023/04/01 14:41:16;;;;;;;;;;;18.30;86.00;;;;;;5147962;27;20047;-53
2023/04/01 14:44:00;;;;;;;;;;;18.30;86.00;;;;;;5157782;27;19907;-55